sensor_id;sensor_type;location;lat;lon;timestamp;pressure;altitude;pressure_sealevel;temperature;humidity
39729;BME280;25402;42.004;23.088;2023-07-13T00:01:49;97652.09;;;17.96;45.54
39729;BME280;25402;42.004;23.088;2023-07-13T00:04:19;97665.94;;;18.01;45.49
39729;BME280;25402;42.004;23.088;2023-07-13T00:06:46;97672.47;;;18.00;45.48
39729;BME280;25402;42.004;23.088;2023-07-13T00:09:14;97666.41;;;17.98;45.53
39729;BME280;25402;42.004;23.088;2023-07-13T00:11:42;97669.69;;;17.89;45.94
39729;BME280;25402;42.004;23.088;2023-07-13T00:14:10;97637.22;;;17.74;46.02
39729;BME280;25402;42.004;23.088;2023-07-13T00:16:39;97652.88;;;17.85;45.87
39729;BME280;25402;42.004;23.088;2023-07-13T00:19:09;97656.69;;;17.84;45.68
39729;BME280;25402;42.004;23.088;2023-07-13T00:21:38;97660.63;;;17.88;45.92
39729;BME280;25402;42.004;23.088;2023-07-13T00:24:05;97663.16;;;17.90;45.70
39729;BME280;25402;42.004;23.088;2023-07-13T00:26:32;97659.34;;;17.91;45.78
39729;BME280;25402;42.004;23.088;2023-07-13T00:28:59;97662.91;;;17.91;45.93
39729;BME280;25402;42.004;23.088;2023-07-13T00:31:26;97652.44;;;17.88;45.68
39729;BME280;25402;42.004;23.088;2023-07-13T00:33:53;97658.75;;;17.89;45.57
39729;BME280;25402;42.004;23.088;2023-07-13T00:36:22;97638.50;;;17.71;45.75
39729;BME280;25402;42.004;23.088;2023-07-13T00:38:51;97662.38;;;17.83;45.63
39729;BME280;25402;42.004;23.088;2023-07-13T00:41:19;97653.63;;;17.74;45.80
39729;BME280;25402;42.004;23.088;2023-07-13T00:43:45;97666.41;;;17.80;45.83
39729;BME280;25402;42.004;23.088;2023-07-13T00:46:22;97664.41;;;17.69;45.96
39729;BME280;25402;42.004;23.088;2023-07-13T00:48:50;97666.31;;;17.68;46.20
39729;BME280;25402;42.004;23.088;2023-07-13T00:51:22;97660.25;;;17.66;46.37
39729;BME280;25402;42.004;23.088;2023-07-13T00:53:54;97664.25;;;17.64;46.23
39729;BME280;25402;42.004;23.088;2023-07-13T00:56:23;97658.28;;;17.55;46.62
39729;BME280;25402;42.004;23.088;2023-07-13T00:58:50;97663.53;;;17.57;46.94
39729;BME280;25402;42.004;23.088;2023-07-13T01:01:17;97664.34;;;17.57;46.62
39729;BME280;25402;42.004;23.088;2023-07-13T01:03:44;97662.91;;;17.55;47.06
39729;BME280;25402;42.004;23.088;2023-07-13T01:06:12;97665.72;;;17.48;47.17
39729;BME280;25402;42.004;23.088;2023-07-13T01:08:39;97639.56;;;17.34;46.74
39729;BME280;25402;42.004;23.088;2023-07-13T01:11:08;97661.16;;;17.42;46.67
39729;BME280;25402;42.004;23.088;2023-07-13T01:13:35;97653.13;;;17.29;47.18
39729;BME280;25402;42.004;23.088;2023-07-13T01:16:04;97663.34;;;17.33;46.75
39729;BME280;25402;42.004;23.088;2023-07-13T01:18:33;97667.41;;;17.31;46.94
39729;BME280;25402;42.004;23.088;2023-07-13T01:21:03;97667.16;;;17.32;46.75
39729;BME280;25402;42.004;23.088;2023-07-13T01:23:32;97664.28;;;17.27;47.12
39729;BME280;25402;42.004;23.088;2023-07-13T01:26:00;97655.69;;;17.24;47.18
39729;BME280;25402;42.004;23.088;2023-07-13T01:28:28;97663.03;;;17.23;47.33
39729;BME280;25402;42.004;23.088;2023-07-13T01:30:57;97658.34;;;17.12;47.48
39729;BME280;25402;42.004;23.088;2023-07-13T01:33:25;97662.75;;;17.13;47.60
39729;BME280;25402;42.004;23.088;2023-07-13T01:35:52;97663.78;;;17.12;47.28
39729;BME280;25402;42.004;23.088;2023-07-13T01:38:22;97665.72;;;17.05;47.59
39729;BME280;25402;42.004;23.088;2023-07-13T01:40:50;97667.06;;;16.96;47.76
39729;BME280;25402;42.004;23.088;2023-07-13T01:43:17;97663.31;;;16.90;48.02
39729;BME280;25402;42.004;23.088;2023-07-13T01:45:44;97663.53;;;16.89;47.68
39729;BME280;25402;42.004;23.088;2023-07-13T01:48:12;97643.38;;;16.65;48.07
39729;BME280;25402;42.004;23.088;2023-07-13T01:50:39;97644.59;;;16.69;48.36
39729;BME280;25402;42.004;23.088;2023-07-13T01:53:06;97678.13;;;16.83;48.06
39729;BME280;25402;42.004;23.088;2023-07-13T01:55:35;97672.25;;;16.79;48.05
39729;BME280;25402;42.004;23.088;2023-07-13T01:58:02;97657.81;;;16.72;48.29
39729;BME280;25402;42.004;23.088;2023-07-13T02:00:29;97663.66;;;16.76;48.65
39729;BME280;25402;42.004;23.088;2023-07-13T02:02:56;97678.59;;;16.73;48.61
39729;BME280;25402;42.004;23.088;2023-07-13T02:05:23;97673.78;;;16.68;48.46
39729;BME280;25402;42.004;23.088;2023-07-13T02:07:50;97685.19;;;16.65;48.63
39729;BME280;25402;42.004;23.088;2023-07-13T02:10:18;97686.25;;;16.64;48.43
39729;BME280;25402;42.004;23.088;2023-07-13T02:12:48;97681.84;;;16.63;48.63
39729;BME280;25402;42.004;23.088;2023-07-13T02:15:16;97683.34;;;16.59;48.52
39729;BME280;25402;42.004;23.088;2023-07-13T02:17:43;97679.38;;;16.55;49.01
39729;BME280;25402;42.004;23.088;2023-07-13T02:20:10;97685.03;;;16.54;48.83
39729;BME280;25402;42.004;23.088;2023-07-13T02:22:37;97664.09;;;16.41;48.78
39729;BME280;25402;42.004;23.088;2023-07-13T02:25:05;97681.72;;;16.52;48.77
39729;BME280;25402;42.004;23.088;2023-07-13T02:27:32;97679.66;;;16.47;48.63
39729;BME280;25402;42.004;23.088;2023-07-13T02:30:00;97689.28;;;16.43;49.09
39729;BME280;25402;42.004;23.088;2023-07-13T02:32:28;97681.09;;;16.43;48.59
39729;BME280;25402;42.004;23.088;2023-07-13T02:34:55;97683.66;;;16.45;49.04
39729;BME280;25402;42.004;23.088;2023-07-13T02:37:21;97679.66;;;16.41;48.81
39729;BME280;25402;42.004;23.088;2023-07-13T02:39:48;97683.06;;;16.36;49.25
39729;BME280;25402;42.004;23.088;2023-07-13T02:42:15;97691.47;;;16.35;49.22
39729;BME280;25402;42.004;23.088;2023-07-13T02:44:42;97689.59;;;16.28;48.91
39729;BME280;25402;42.004;23.088;2023-07-13T02:47:10;97694.22;;;16.28;49.26
39729;BME280;25402;42.004;23.088;2023-07-13T02:49:38;97694.00;;;16.29;48.82
39729;BME280;25402;42.004;23.088;2023-07-13T02:52:05;97694.66;;;16.25;48.76
39729;BME280;25402;42.004;23.088;2023-07-13T02:54:32;97709.34;;;16.30;48.67
39729;BME280;25402;42.004;23.088;2023-07-13T02:56:59;97668.06;;;16.14;49.06
39729;BME280;25402;42.004;23.088;2023-07-13T02:59:26;97684.00;;;16.17;49.06
39729;BME280;25402;42.004;23.088;2023-07-13T03:01:53;97713.75;;;16.25;48.97
39729;BME280;25402;42.004;23.088;2023-07-13T03:04:21;97712.09;;;16.24;49.09
39729;BME280;25402;42.004;23.088;2023-07-13T03:06:48;97711.88;;;16.25;49.07
39729;BME280;25402;42.004;23.088;2023-07-13T03:09:15;97709.34;;;16.24;49.20
39729;BME280;25402;42.004;23.088;2023-07-13T03:11:42;97713.13;;;16.23;49.23
39729;BME280;25402;42.004;23.088;2023-07-13T03:14:09;97688.22;;;16.13;49.59
39729;BME280;25402;42.004;23.088;2023-07-13T03:16:35;97696.94;;;16.28;49.45
39729;BME280;25402;42.004;23.088;2023-07-13T03:19:03;97711.22;;;16.30;48.96
39729;BME280;25402;42.004;23.088;2023-07-13T03:21:31;97706.78;;;16.36;49.32
39729;BME280;25402;42.004;23.088;2023-07-13T03:23:58;97702.75;;;16.38;49.21
39729;BME280;25402;42.004;23.088;2023-07-13T03:26:24;97706.53;;;16.37;49.57
39729;BME280;25402;42.004;23.088;2023-07-13T03:28:51;97691.06;;;16.31;49.40
39729;BME280;25402;42.004;23.088;2023-07-13T03:31:20;97717.44;;;16.50;49.41
39729;BME280;25402;42.004;23.088;2023-07-13T03:33:53;97707.72;;;16.54;49.34
39729;BME280;25402;42.004;23.088;2023-07-13T03:36:23;97690.56;;;16.47;48.95
39729;BME280;25402;42.004;23.088;2023-07-13T03:38:54;97710.75;;;16.71;49.26
39729;BME280;25402;42.004;23.088;2023-07-13T03:41:22;97717.88;;;16.79;49.03
39729;BME280;25402;42.004;23.088;2023-07-13T03:43:50;97714.72;;;17.00;49.09
39729;BME280;25402;42.004;23.088;2023-07-13T03:46:18;97707.00;;;17.22;48.21
39729;BME280;25402;42.004;23.088;2023-07-13T03:48:46;97723.72;;;17.75;47.37
39729;BME280;25402;42.004;23.088;2023-07-13T03:51:15;97725.44;;;18.24;45.54
39729;BME280;25402;42.004;23.088;2023-07-13T03:53:44;97710.59;;;18.62;44.95
39729;BME280;25402;42.004;23.088;2023-07-13T03:56:13;97720.75;;;19.26;43.89
39729;BME280;25402;42.004;23.088;2023-07-13T03:58:42;97730.91;;;19.72;42.77
39729;BME280;25402;42.004;23.088;2023-07-13T04:01:10;97718.63;;;20.15;41.86
39729;BME280;25402;42.004;23.088;2023-07-13T04:03:37;97726.22;;;20.65;40.38
39729;BME280;25402;42.004;23.088;2023-07-13T04:06:08;97727.81;;;21.06;39.63
39729;BME280;25402;42.004;23.088;2023-07-13T04:08:40;97715.44;;;21.42;38.59
39729;BME280;25402;42.004;23.088;2023-07-13T04:11:07;97719.00;;;21.76;38.06
39729;BME280;25402;42.004;23.088;2023-07-13T04:13:36;97719.50;;;22.11;37.25
39729;BME280;25402;42.004;23.088;2023-07-13T04:16:03;97717.69;;;22.44;36.63
39729;BME280;25402;42.004;23.088;2023-07-13T04:18:30;97724.22;;;22.86;36.05
39729;BME280;25402;42.004;23.088;2023-07-13T04:20:56;97734.56;;;23.28;35.08
39729;BME280;25402;42.004;23.088;2023-07-13T04:23:23;97722.66;;;23.65;34.36
39729;BME280;25402;42.004;23.088;2023-07-13T04:25:52;97730.16;;;24.16;33.77
39729;BME280;25402;42.004;23.088;2023-07-13T04:28:20;97733.06;;;24.57;32.81
39729;BME280;25402;42.004;23.088;2023-07-13T04:30:49;97745.91;;;24.93;32.16
39729;BME280;25402;42.004;23.088;2023-07-13T04:33:16;97734.31;;;25.17;31.92
39729;BME280;25402;42.004;23.088;2023-07-13T04:35:43;97733.19;;;25.58;31.17
39729;BME280;25402;42.004;23.088;2023-07-13T04:38:12;97728.47;;;25.84;30.92
39729;BME280;25402;42.004;23.088;2023-07-13T04:40:42;97733.63;;;26.21;30.58
39729;BME280;25402;42.004;23.088;2023-07-13T04:43:10;97722.97;;;26.49;29.92
39729;BME280;25402;42.004;23.088;2023-07-13T04:45:37;97731.69;;;26.81;29.09
39729;BME280;25402;42.004;23.088;2023-07-13T04:48:05;97735.88;;;27.18;29.35
39729;BME280;25402;42.004;23.088;2023-07-13T04:50:32;97727.34;;;27.43;28.58
39729;BME280;25402;42.004;23.088;2023-07-13T04:53:03;97722.84;;;27.81;28.36
39729;BME280;25402;42.004;23.088;2023-07-13T04:55:30;97730.97;;;28.01;27.98
39729;BME280;25402;42.004;23.088;2023-07-13T04:57:57;97723.41;;;28.31;27.47
39729;BME280;25402;42.004;23.088;2023-07-13T05:00:25;97718.47;;;28.47;27.47
39729;BME280;25402;42.004;23.088;2023-07-13T05:02:54;97724.59;;;28.86;26.93
39729;BME280;25402;42.004;23.088;2023-07-13T05:05:23;97730.69;;;29.07;26.61
39729;BME280;25402;42.004;23.088;2023-07-13T05:07:51;97728.03;;;29.34;26.18
39729;BME280;25402;42.004;23.088;2023-07-13T05:10:18;97717.81;;;29.62;25.40
39729;BME280;25402;42.004;23.088;2023-07-13T05:12:45;97739.97;;;30.00;25.34
39729;BME280;25402;42.004;23.088;2023-07-13T05:15:12;97730.72;;;30.18;24.78
39729;BME280;25402;42.004;23.088;2023-07-13T05:17:39;97732.44;;;30.28;24.83
39729;BME280;25402;42.004;23.088;2023-07-13T05:20:09;97721.50;;;30.31;24.81
39729;BME280;25402;42.004;23.088;2023-07-13T05:22:43;97734.00;;;30.48;24.68
39729;BME280;25402;42.004;23.088;2023-07-13T05:25:12;97732.03;;;30.48;24.42
39729;BME280;25402;42.004;23.088;2023-07-13T05:27:39;97726.56;;;30.57;24.38
39729;BME280;25402;42.004;23.088;2023-07-13T05:30:07;97737.81;;;30.65;24.15
39729;BME280;25402;42.004;23.088;2023-07-13T05:32:38;97729.25;;;30.62;24.09
39729;BME280;25402;42.004;23.088;2023-07-13T05:35:06;97723.66;;;30.48;24.35
39729;BME280;25402;42.004;23.088;2023-07-13T05:37:34;97732.94;;;30.43;24.79
39729;BME280;25402;42.004;23.088;2023-07-13T05:40:05;97736.88;;;30.42;25.07
39729;BME280;25402;42.004;23.088;2023-07-13T05:42:34;97730.47;;;30.56;24.39
39729;BME280;25402;42.004;23.088;2023-07-13T05:45:02;97725.50;;;30.66;24.34
39729;BME280;25402;42.004;23.088;2023-07-13T05:47:29;97735.22;;;30.41;24.33
39729;BME280;25402;42.004;23.088;2023-07-13T05:49:56;97733.09;;;30.52;24.19
39729;BME280;25402;42.004;23.088;2023-07-13T05:52:24;97738.13;;;30.64;23.90
39729;BME280;25402;42.004;23.088;2023-07-13T05:54:51;97733.59;;;30.68;23.94
39729;BME280;25402;42.004;23.088;2023-07-13T05:57:19;97738.69;;;30.88;24.10
39729;BME280;25402;42.004;23.088;2023-07-13T05:59:48;97728.53;;;30.92;23.87
39729;BME280;25402;42.004;23.088;2023-07-13T06:02:15;97740.53;;;31.06;23.75
39729;BME280;25402;42.004;23.088;2023-07-13T06:04:42;97737.50;;;31.17;23.30
39729;BME280;25402;42.004;23.088;2023-07-13T06:07:09;97744.59;;;31.23;23.75
39729;BME280;25402;42.004;23.088;2023-07-13T06:09:35;97741.09;;;31.17;23.96
39729;BME280;25402;42.004;23.088;2023-07-13T06:12:04;97733.81;;;31.30;23.83
39729;BME280;25402;42.004;23.088;2023-07-13T06:14:36;97745.00;;;31.30;23.65
39729;BME280;25402;42.004;23.088;2023-07-13T06:17:03;97737.28;;;31.35;23.61
39729;BME280;25402;42.004;23.088;2023-07-13T06:19:32;97736.28;;;31.31;23.66
39729;BME280;25402;42.004;23.088;2023-07-13T06:21:59;97720.97;;;31.29;23.57
39729;BME280;25402;42.004;23.088;2023-07-13T06:24:26;97740.22;;;31.30;23.54
39729;BME280;25402;42.004;23.088;2023-07-13T06:26:53;97741.28;;;31.21;23.97
39729;BME280;25402;42.004;23.088;2023-07-13T06:29:20;97728.47;;;31.20;23.84
39729;BME280;25402;42.004;23.088;2023-07-13T06:31:48;97741.28;;;31.21;23.68
39729;BME280;25402;42.004;23.088;2023-07-13T06:34:15;97729.34;;;31.06;23.74
39729;BME280;25402;42.004;23.088;2023-07-13T06:36:42;97727.13;;;31.17;23.70
39729;BME280;25402;42.004;23.088;2023-07-13T06:39:10;97732.16;;;31.29;23.69
39729;BME280;25402;42.004;23.088;2023-07-13T06:41:36;97741.06;;;31.53;23.04
39729;BME280;25402;42.004;23.088;2023-07-13T06:44:04;97720.34;;;31.32;23.21
39729;BME280;25402;42.004;23.088;2023-07-13T06:46:32;97739.88;;;31.45;23.20
39729;BME280;25402;42.004;23.088;2023-07-13T06:49:00;97737.91;;;31.46;23.29
39729;BME280;25402;42.004;23.088;2023-07-13T06:51:27;97741.97;;;31.62;23.39
39729;BME280;25402;42.004;23.088;2023-07-13T06:53:54;97723.97;;;31.55;22.92
39729;BME280;25402;42.004;23.088;2023-07-13T06:58:50;97740.91;;;31.80;22.87
39729;BME280;25402;42.004;23.088;2023-07-13T07:01:17;97703.34;;;31.73;22.71
39729;BME280;25402;42.004;23.088;2023-07-13T07:03:44;97736.41;;;31.93;22.57
39729;BME280;25402;42.004;23.088;2023-07-13T07:06:16;97714.72;;;31.76;22.37
39729;BME280;25402;42.004;23.088;2023-07-13T07:08:43;97707.22;;;31.86;22.47
39729;BME280;25402;42.004;23.088;2023-07-13T07:11:12;97722.63;;;32.05;22.58
39729;BME280;25402;42.004;23.088;2023-07-13T07:13:39;97706.03;;;32.17;22.46
39729;BME280;25402;42.004;23.088;2023-07-13T07:16:07;97710.38;;;32.32;22.30
39729;BME280;25402;42.004;23.088;2023-07-13T07:18:34;97701.66;;;32.34;22.17
39729;BME280;25402;42.004;23.088;2023-07-13T07:21:01;97690.59;;;32.29;22.43
39729;BME280;25402;42.004;23.088;2023-07-13T07:23:30;97643.25;;;31.93;22.03
39729;BME280;25402;42.004;23.088;2023-07-13T07:25:57;97700.69;;;32.38;22.60
39729;BME280;25402;42.004;23.088;2023-07-13T07:28:24;97683.47;;;32.14;22.41
39729;BME280;25402;42.004;23.088;2023-07-13T07:30:54;97665.66;;;32.01;22.34
39729;BME280;25402;42.004;23.088;2023-07-13T07:33:22;97693.69;;;32.10;22.51
39729;BME280;25402;42.004;23.088;2023-07-13T07:35:49;97690.38;;;32.16;22.09
39729;BME280;25402;42.004;23.088;2023-07-13T07:38:16;97667.81;;;32.13;22.07
39729;BME280;25402;42.004;23.088;2023-07-13T07:40:44;97686.84;;;32.25;22.44
39729;BME280;25402;42.004;23.088;2023-07-13T07:43:12;97683.22;;;32.24;22.58
39729;BME280;25402;42.004;23.088;2023-07-13T07:45:39;97676.06;;;32.18;22.76
39729;BME280;25402;42.004;23.088;2023-07-13T07:48:07;97678.56;;;32.20;22.86
39729;BME280;25402;42.004;23.088;2023-07-13T07:50:35;97675.97;;;32.23;22.75
39729;BME280;25402;42.004;23.088;2023-07-13T07:53:01;97674.41;;;32.17;22.63
39729;BME280;25402;42.004;23.088;2023-07-13T07:55:29;97677.41;;;32.21;22.70
39729;BME280;25402;42.004;23.088;2023-07-13T07:57:57;97674.41;;;32.17;22.73
39729;BME280;25402;42.004;23.088;2023-07-13T08:00:24;97670.47;;;32.18;22.68
39729;BME280;25402;42.004;23.088;2023-07-13T08:02:52;97654.47;;;32.01;23.27
39729;BME280;25402;42.004;23.088;2023-07-13T08:05:19;97636.34;;;31.99;23.17
39729;BME280;25402;42.004;23.088;2023-07-13T08:07:46;97653.69;;;32.18;23.05
39729;BME280;25402;42.004;23.088;2023-07-13T08:10:12;97649.50;;;31.98;22.61
39729;BME280;25402;42.004;23.088;2023-07-13T08:12:40;97629.53;;;31.83;23.17
39729;BME280;25402;42.004;23.088;2023-07-13T08:15:12;97649.19;;;32.00;22.70
39729;BME280;25402;42.004;23.088;2023-07-13T08:17:39;97647.56;;;32.07;22.11
39729;BME280;25402;42.004;23.088;2023-07-13T08:20:07;97639.84;;;32.13;21.10
39729;BME280;25402;42.004;23.088;2023-07-13T08:22:35;97637.59;;;32.24;21.43
39729;BME280;25402;42.004;23.088;2023-07-13T08:25:02;97613.34;;;32.19;21.29
39729;BME280;25402;42.004;23.088;2023-07-13T08:27:29;97593.41;;;32.12;21.26
39729;BME280;25402;42.004;23.088;2023-07-13T08:29:56;97625.94;;;32.39;21.51
39729;BME280;25402;42.004;23.088;2023-07-13T08:32:24;97617.53;;;32.47;21.28
39729;BME280;25402;42.004;23.088;2023-07-13T08:34:51;97607.34;;;32.52;21.47
39729;BME280;25402;42.004;23.088;2023-07-13T08:37:19;97610.31;;;32.55;21.65
39729;BME280;25402;42.004;23.088;2023-07-13T08:39:46;97601.13;;;32.72;21.90
39729;BME280;25402;42.004;23.088;2023-07-13T08:42:20;97612.13;;;32.77;21.23
39729;BME280;25402;42.004;23.088;2023-07-13T08:44:53;97610.81;;;32.74;21.66
39729;BME280;25402;42.004;23.088;2023-07-13T08:47:26;97610.97;;;32.87;21.56
39729;BME280;25402;42.004;23.088;2023-07-13T08:49:55;97600.09;;;32.85;21.07
39729;BME280;25402;42.004;23.088;2023-07-13T08:52:31;97594.16;;;33.04;21.44
39729;BME280;25402;42.004;23.088;2023-07-13T08:55:05;97599.91;;;33.07;21.17
39729;BME280;25402;42.004;23.088;2023-07-13T08:57:35;97594.16;;;33.12;21.36
39729;BME280;25402;42.004;23.088;2023-07-13T09:00:03;97587.22;;;33.18;21.10
39729;BME280;25402;42.004;23.088;2023-07-13T09:02:41;97585.53;;;33.35;20.75
39729;BME280;25402;42.004;23.088;2023-07-13T09:05:13;97583.66;;;33.39;20.66
39729;BME280;25402;42.004;23.088;2023-07-13T09:07:58;97583.84;;;33.51;21.00
39729;BME280;25402;42.004;23.088;2023-07-13T09:10:29;97566.63;;;33.61;20.32
39729;BME280;25402;42.004;23.088;2023-07-13T09:13:10;97553.59;;;33.57;20.37
39729;BME280;25402;42.004;23.088;2023-07-13T09:15:40;97569.63;;;33.56;20.33
39729;BME280;25402;42.004;23.088;2023-07-13T09:18:13;97563.59;;;33.75;20.78
39729;BME280;25402;42.004;23.088;2023-07-13T09:20:44;97564.19;;;33.89;20.44
39729;BME280;25402;42.004;23.088;2023-07-13T09:23:15;97545.13;;;34.03;20.44
39729;BME280;25402;42.004;23.088;2023-07-13T09:25:45;97542.03;;;33.96;20.12
39729;BME280;25402;42.004;23.088;2023-07-13T09:28:16;97536.78;;;33.95;20.28
39729;BME280;25402;42.004;23.088;2023-07-13T09:30:49;97528.41;;;34.07;20.15
39729;BME280;25402;42.004;23.088;2023-07-13T09:33:20;97542.41;;;34.36;20.47
39729;BME280;25402;42.004;23.088;2023-07-13T09:35:48;97534.19;;;34.52;20.57
39729;BME280;25402;42.004;23.088;2023-07-13T09:38:17;97539.94;;;34.76;20.12
39729;BME280;25402;42.004;23.088;2023-07-13T09:41:03;97527.31;;;34.82;19.39
39729;BME280;25402;42.004;23.088;2023-07-13T09:43:34;97522.50;;;34.83;19.35
39729;BME280;25402;42.004;23.088;2023-07-13T09:46:02;97521.50;;;35.00;19.54
39729;BME280;25402;42.004;23.088;2023-07-13T09:48:36;97515.31;;;35.06;19.39
39729;BME280;25402;42.004;23.088;2023-07-13T09:51:12;97508.38;;;35.37;18.88
39729;BME280;25402;42.004;23.088;2023-07-13T09:53:41;97502.53;;;35.54;18.72
39729;BME280;25402;42.004;23.088;2023-07-13T09:56:19;97498.88;;;35.78;18.83
39729;BME280;25402;42.004;23.088;2023-07-13T09:58:47;97505.78;;;35.80;18.73
39729;BME280;25402;42.004;23.088;2023-07-13T10:01:14;97499.25;;;35.88;18.64
39729;BME280;25402;42.004;23.088;2023-07-13T10:03:52;97490.75;;;36.13;18.68
39729;BME280;25402;42.004;23.088;2023-07-13T10:06:22;97498.94;;;36.30;18.08
39729;BME280;25402;42.004;23.088;2023-07-13T10:08:51;97500.75;;;36.50;17.71
39729;BME280;25402;42.004;23.088;2023-07-13T10:11:20;97499.88;;;36.62;17.47
39729;BME280;25402;42.004;23.088;2023-07-13T10:13:51;97513.56;;;36.76;17.41
39729;BME280;25402;42.004;23.088;2023-07-13T10:16:19;97501.03;;;36.89;17.08
39729;BME280;25402;42.004;23.088;2023-07-13T10:18:50;97504.13;;;37.00;16.74
39729;BME280;25402;42.004;23.088;2023-07-13T10:21:20;97491.31;;;37.02;16.59
39729;BME280;25402;42.004;23.088;2023-07-13T10:23:51;97494.28;;;37.21;16.13
39729;BME280;25402;42.004;23.088;2023-07-13T10:26:23;97489.81;;;37.20;15.12
39729;BME280;25402;42.004;23.088;2023-07-13T10:28:54;97493.09;;;37.22;14.64
39729;BME280;25402;42.004;23.088;2023-07-13T10:31:22;97483.25;;;37.16;14.49
39729;BME280;25402;42.004;23.088;2023-07-13T10:33:51;97469.72;;;37.22;14.01
39729;BME280;25402;42.004;23.088;2023-07-13T10:36:31;97491.91;;;37.39;14.14
39729;BME280;25402;42.004;23.088;2023-07-13T10:39:02;97474.38;;;37.46;13.74
39729;BME280;25402;42.004;23.088;2023-07-13T10:41:35;97470.25;;;37.59;14.17
39729;BME280;25402;42.004;23.088;2023-07-13T10:44:12;97479.50;;;37.75;14.74
39729;BME280;25402;42.004;23.088;2023-07-13T10:46:43;97466.94;;;37.88;15.11
39729;BME280;25402;42.004;23.088;2023-07-13T10:49:14;97472.91;;;38.03;14.89
39729;BME280;25402;42.004;23.088;2023-07-13T10:51:42;97474.50;;;38.19;15.03
39729;BME280;25402;42.004;23.088;2023-07-13T10:54:18;97453.31;;;38.29;15.18
39729;BME280;25402;42.004;23.088;2023-07-13T10:56:49;97457.47;;;38.35;14.95
39729;BME280;25402;42.004;23.088;2023-07-13T10:59:20;97448.47;;;38.29;14.84
39729;BME280;25402;42.004;23.088;2023-07-13T11:01:55;97440.81;;;38.49;14.53
39729;BME280;25402;42.004;23.088;2023-07-13T11:04:25;97455.31;;;38.67;14.60
39729;BME280;25402;42.004;23.088;2023-07-13T11:06:57;97443.91;;;38.83;13.98
39729;BME280;25402;42.004;23.088;2023-07-13T11:09:36;97439.66;;;38.92;13.89
39729;BME280;25402;42.004;23.088;2023-07-13T11:12:10;97438.69;;;39.04;14.15
39729;BME280;25402;42.004;23.088;2023-07-13T11:15:10;97430.81;;;39.17;13.92
39729;BME280;25402;42.004;23.088;2023-07-13T11:17:48;97428.00;;;39.20;13.53
39729;BME280;25402;42.004;23.088;2023-07-13T11:20:23;97418.88;;;39.27;13.80
39729;BME280;25402;42.004;23.088;2023-07-13T11:22:52;97415.78;;;39.36;13.52
39729;BME280;25402;42.004;23.088;2023-07-13T11:25:28;97418.28;;;39.41;13.97
39729;BME280;25402;42.004;23.088;2023-07-13T11:28:17;97417.06;;;39.42;13.83
39729;BME280;25402;42.004;23.088;2023-07-13T11:30:49;97416.97;;;39.35;13.52
39729;BME280;25402;42.004;23.088;2023-07-13T11:33:19;97418.66;;;39.16;13.94
39729;BME280;25402;42.004;23.088;2023-07-13T11:35:59;97412.97;;;39.36;13.74
39729;BME280;25402;42.004;23.088;2023-07-13T11:38:33;97411.16;;;38.82;13.62
39729;BME280;25402;42.004;23.088;2023-07-13T11:41:04;97401.50;;;38.83;13.25
39729;BME280;25402;42.004;23.088;2023-07-13T11:43:32;97408.97;;;38.72;13.61
39729;BME280;25402;42.004;23.088;2023-07-13T11:46:13;97403.94;;;38.84;13.52
39729;BME280;25402;42.004;23.088;2023-07-13T11:48:41;97401.81;;;38.78;13.43
39729;BME280;25402;42.004;23.088;2023-07-13T11:51:18;97372.47;;;38.86;13.26
39729;BME280;25402;42.004;23.088;2023-07-13T11:53:48;97369.53;;;39.02;12.65
39729;BME280;25402;42.004;23.088;2023-07-13T11:56:22;97375.81;;;38.91;12.60
39729;BME280;25402;42.004;23.088;2023-07-13T11:58:51;97376.81;;;38.80;13.44
39729;BME280;25402;42.004;23.088;2023-07-13T12:01:22;97377.44;;;38.70;13.26
39729;BME280;25402;42.004;23.088;2023-07-13T12:03:50;97377.25;;;38.82;13.08
39729;BME280;25402;42.004;23.088;2023-07-13T12:06:26;97367.41;;;38.95;13.72
39729;BME280;25402;42.004;23.088;2023-07-13T12:08:56;97362.09;;;39.16;12.91
39729;BME280;25402;42.004;23.088;2023-07-13T12:11:24;97368.22;;;39.22;13.03
39729;BME280;25402;42.004;23.088;2023-07-13T12:13:51;97360.41;;;39.35;13.04
39729;BME280;25402;42.004;23.088;2023-07-13T12:16:27;97352.28;;;39.33;13.05
39729;BME280;25402;42.004;23.088;2023-07-13T12:18:56;97347.75;;;39.28;13.34
39729;BME280;25402;42.004;23.088;2023-07-13T12:21:30;97345.91;;;39.40;13.59
39729;BME280;25402;42.004;23.088;2023-07-13T12:23:57;97348.09;;;39.50;13.49
39729;BME280;25402;42.004;23.088;2023-07-13T12:26:28;97338.03;;;39.56;13.18
39729;BME280;25402;42.004;23.088;2023-07-13T12:28:56;97341.31;;;39.58;13.11
39729;BME280;25402;42.004;23.088;2023-07-13T12:31:26;97331.16;;;39.27;13.11
39729;BME280;25402;42.004;23.088;2023-07-13T12:33:58;97329.66;;;39.33;13.36
39729;BME280;25402;42.004;23.088;2023-07-13T12:36:30;97304.56;;;39.31;12.95
39729;BME280;25402;42.004;23.088;2023-07-13T12:39:01;97324.78;;;39.07;13.28
39729;BME280;25402;42.004;23.088;2023-07-13T12:41:30;97321.25;;;39.14;13.43
39729;BME280;25402;42.004;23.088;2023-07-13T12:43:59;97307.53;;;39.42;13.68
39729;BME280;25402;42.004;23.088;2023-07-13T12:46:26;97304.06;;;39.56;13.10
39729;BME280;25402;42.004;23.088;2023-07-13T12:48:57;97321.72;;;39.72;13.82
39729;BME280;25402;42.004;23.088;2023-07-13T12:51:27;97312.06;;;39.77;13.54
39729;BME280;25402;42.004;23.088;2023-07-13T12:54:06;97319.53;;;39.92;13.67
39729;BME280;25402;42.004;23.088;2023-07-13T12:56:37;97315.50;;;39.93;13.42
39729;BME280;25402;42.004;23.088;2023-07-13T12:59:04;97312.03;;;40.07;13.42
39729;BME280;25402;42.004;23.088;2023-07-13T13:01:35;97303.66;;;40.14;13.29
39729;BME280;25402;42.004;23.088;2023-07-13T13:04:03;97309.03;;;40.26;13.03